Time;durP1;ratioP1;P1;durP2;ratioP2;P2;SDS_P1;SDS_P2;PMS_P1;PMS_P2;Temp;Humidity;BMP_temperature;BMP_pressure;BME280_temperature;BME280_humidity;BME280_pressure;Samples;Min_cycle;Max_cycle;Signal;HPM_P1;HPM_P2
2023/10/29 00:01:41;;;;;;;6.35;0.50;;;17.10;99.90;;;;;;4957304;29;20047;-74
2023/10/29 00:04:06;;;;;;;2.20;0.50;;;17.10;99.90;;;;;;4957468;29;20031;-74
2023/10/29 00:06:32;;;;;;;1.65;0.57;;;17.10;99.90;;;;;;4957321;28;20023;-74
2023/10/29 00:08:58;;;;;;;3.42;0.60;;;17.10;99.90;;;;;;4956958;29;20090;-74
2023/10/29 00:11:23;;;;;;;1.77;0.60;;;17.10;99.90;;;;;;4957376;28;20469;-73
2023/10/29 00:13:49;;;;;;;1.50;0.35;;;17.10;99.90;;;;;;4957162;29;20054;-71
2023/10/29 00:16:14;;;;;;;1.80;0.52;;;17.10;99.90;;;;;;4957208;29;20027;-74
2023/10/29 00:18:40;;;;;;;0.82;0.30;;;17.10;99.90;;;;;;4956994;28;20118;-74
2023/10/29 00:21:07;;;;;;;2.42;0.40;;;17.10;99.90;;;;;;4956970;29;20035;-74
2023/10/29 00:23:33;;;;;;;2.70;0.43;;;17.10;99.90;;;;;;4956717;28;20024;-74
2023/10/29 00:25:58;;;;;;;3.20;0.60;;;17.10;99.90;;;;;;4956881;29;20042;-74
2023/10/29 00:28:25;;;;;;;1.95;0.30;;;17.10;99.90;;;;;;4956840;28;20023;-74
2023/10/29 00:30:55;;;;;;;1.33;0.40;;;17.10;99.90;;;;;;4956822;28;20100;-74
2023/10/29 00:33:20;;;;;;;1.58;0.28;;;17.10;99.90;;;;;;4956769;28;20050;-74
2023/10/29 00:35:46;;;;;;;3.08;0.60;;;17.10;99.90;;;;;;4956829;28;20027;-75
2023/10/29 00:38:11;;;;;;;1.27;0.40;;;17.10;99.90;;;;;;4956488;28;20480;-74
2023/10/29 00:40:38;;;;;;;1.23;0.50;;;17.10;99.90;;;;;;4956588;29;20039;-72
2023/10/29 00:43:04;;;;;;;2.58;0.63;;;17.10;99.90;;;;;;4956602;28;20067;-73
2023/10/29 00:45:29;;;;;;;1.35;0.30;;;17.10;99.90;;;;;;4956560;29;20035;-72
2023/10/29 00:47:55;;;;;;;1.45;0.40;;;17.10;99.90;;;;;;4956673;28;20094;-72
2023/10/29 00:50:21;;;;;;;1.55;0.50;;;17.10;99.90;;;;;;4956504;28;20039;-72
2023/10/29 00:52:47;;;;;;;1.05;0.30;;;17.10;99.90;;;;;;4956436;29;20024;-72
2023/10/29 00:55:13;;;;;;;1.58;0.25;;;17.10;99.90;;;;;;4956230;29;20027;-72
2023/10/29 00:57:39;;;;;;;1.98;0.30;;;17.10;99.90;;;;;;4956460;29;20023;-73
2023/10/29 01:00:06;;;;;;;2.78;0.38;;;17.10;99.90;;;;;;4956348;29;20503;-71
2023/10/29 01:02:33;;;;;;;1.70;0.28;;;17.10;99.90;;;;;;4956245;28;20027;-75
2023/10/29 01:04:58;;;;;;;0.93;0.45;;;17.10;99.90;;;;;;4956180;29;20503;-72
2023/10/29 01:07:24;;;;;;;1.58;0.30;;;17.10;99.90;;;;;;4956216;28;20051;-75
2023/10/29 01:09:50;;;;;;;1.23;0.20;;;17.10;99.90;;;;;;4956139;28;20077;-72
2023/10/29 01:12:17;;;;;;;0.88;0.10;;;17.10;99.90;;;;;;4956331;29;20473;-74
2023/10/29 01:14:43;;;;;;;1.67;0.63;;;17.10;99.90;;;;;;4955992;29;20384;-73
2023/10/29 01:17:08;;;;;;;1.33;0.30;;;17.10;99.90;;;;;;4956037;28;20027;-73
2023/10/29 01:19:34;;;;;;;3.55;0.32;;;17.10;99.90;;;;;;4955887;29;20023;-70
2023/10/29 01:21:59;;;;;;;1.60;0.40;;;17.10;99.90;;;;;;4955695;29;20035;-74
2023/10/29 01:24:25;;;;;;;2.35;0.43;;;17.00;99.90;;;;;;4956018;28;20491;-73
2023/10/29 01:26:51;;;;;;;1.30;0.38;;;17.10;99.90;;;;;;4955793;28;20031;-73
2023/10/29 01:29:16;;;;;;;1.80;0.22;;;17.00;99.90;;;;;;4956107;28;20031;-73
2023/10/29 01:31:42;;;;;;;0.52;0.20;;;17.10;99.90;;;;;;4955702;29;20034;-73
2023/10/29 01:34:08;;;;;;;0.60;0.20;;;17.00;99.90;;;;;;4955905;29;20027;-74
2023/10/29 01:36:33;;;;;;;2.58;0.50;;;17.10;99.90;;;;;;4955468;29;20049;-74
2023/10/29 01:38:59;;;;;;;1.38;0.38;;;17.00;99.90;;;;;;4955829;29;20034;-74
2023/10/29 01:41:24;;;;;;;1.17;0.45;;;17.10;99.90;;;;;;4955419;29;20117;-74
2023/10/29 01:43:50;;;;;;;2.75;0.20;;;17.10;99.90;;;;;;4955859;28;20062;-72
2023/10/29 01:46:15;;;;;;;2.65;0.10;;;17.10;99.90;;;;;;4955486;29;20038;-74
2023/10/29 01:48:41;;;;;;;1.55;0.30;;;17.10;99.90;;;;;;4955554;29;20170;-72
2023/10/29 01:51:07;;;;;;;1.20;0.20;;;17.10;99.90;;;;;;4955165;28;20058;-70
2023/10/29 01:53:32;;;;;;;0.57;0.20;;;17.10;99.90;;;;;;4955648;29;20042;-73
2023/10/29 01:55:58;;;;;;;0.73;0.10;;;17.10;99.90;;;;;;4955179;29;20110;-73
2023/10/29 01:58:23;;;;;;;2.58;0.20;;;17.10;99.90;;;;;;4954967;28;20019;-73
2023/10/29 02:00:50;;;;;;;0.45;0.30;;;17.10;99.90;;;;;;4955378;29;20047;-75
2023/10/29 02:03:16;;;;;;;0.68;0.20;;;17.10;99.90;;;;;;4955321;29;20015;-75
2023/10/29 02:05:42;;;;;;;2.08;0.30;;;17.00;99.90;;;;;;4954890;29;20039;-74
2023/10/29 02:08:08;;;;;;;0.80;0.20;;;17.00;99.90;;;;;;4955217;29;20054;-73
2023/10/29 02:10:33;;;;;;;1.67;0.40;;;17.00;99.90;;;;;;4955162;28;20106;-75
2023/10/29 02:12:59;;;;;;;1.17;0.25;;;17.10;99.90;;;;;;4955287;29;20420;-70
2023/10/29 02:15:24;;;;;;;0.77;0.10;;;17.00;99.90;;;;;;4955189;29;20114;-72
2023/10/29 02:17:50;;;;;;;3.45;0.20;;;17.10;99.90;;;;;;4955268;29;20062;-72
2023/10/29 02:20:16;;;;;;;1.60;0.20;;;17.10;99.90;;;;;;4954715;29;20074;-69
2023/10/29 02:22:41;;;;;;;1.50;0.10;;;17.10;99.90;;;;;;4955099;29;20373;-74
2023/10/29 02:25:07;;;;;;;0.77;0.32;;;17.00;99.90;;;;;;4955003;29;20461;-73
2023/10/29 02:27:33;;;;;;;1.85;0.20;;;17.10;99.90;;;;;;4955026;29;20035;-74
2023/10/29 02:29:58;;;;;;;1.08;0.20;;;17.10;99.90;;;;;;4955109;29;20028;-74
2023/10/29 02:32:24;;;;;;;2.20;0.20;;;17.10;99.90;;;;;;4954796;29;20038;-74
2023/10/29 02:34:49;;;;;;;0.95;0.45;;;17.00;99.90;;;;;;4954681;29;20116;-73
2023/10/29 02:37:15;;;;;;;1.35;0.30;;;17.00;99.90;;;;;;4954920;29;20024;-74
2023/10/29 02:39:40;;;;;;;0.90;0.10;;;17.10;99.90;;;;;;4954878;29;20019;-74
2023/10/29 02:42:06;;;;;;;0.95;0.20;;;17.00;99.90;;;;;;4954920;29;20114;-74
2023/10/29 02:44:31;;;;;;;1.23;0.10;;;17.10;99.90;;;;;;4954891;28;20047;-75
2023/10/29 02:46:57;;;;;;;3.33;0.38;;;17.00;99.90;;;;;;4954870;29;20035;-73
2023/10/29 02:49:23;;;;;;;1.95;0.30;;;17.00;99.90;;;;;;4954599;29;20028;-72
2023/10/29 02:51:48;;;;;;;2.97;0.30;;;17.00;99.90;;;;;;4954752;29;20023;-73
2023/10/29 02:54:14;;;;;;;4.53;0.90;;;17.00;99.90;;;;;;4954855;28;20444;-75
2023/10/29 02:56:40;;;;;;;1.00;0.10;;;17.00;99.90;;;;;;4954928;29;20023;-74
2023/10/29 02:59:06;;;;;;;1.05;0.10;;;17.00;99.90;;;;;;4954691;29;20047;-73
2023/10/29 03:01:31;;;;;;;2.83;0.43;;;17.00;99.90;;;;;;4954679;28;20145;-69
2023/10/29 03:03:57;;;;;;;1.55;0.22;;;17.00;99.90;;;;;;4954621;29;20023;-74
2023/10/29 03:06:23;;;;;;;2.22;0.77;;;17.00;99.90;;;;;;4954575;29;20032;-72
2023/10/29 03:08:48;;;;;;;4.32;0.57;;;17.00;99.90;;;;;;4954867;29;20027;-69
2023/10/29 03:11:14;;;;;;;3.33;0.38;;;17.00;99.90;;;;;;4955995;28;20042;-73
2023/10/29 03:13:40;;;;;;;2.83;0.55;;;17.00;99.90;;;;;;4958190;29;20023;-72
2023/10/29 03:16:05;;;;;;;2.22;0.40;;;17.00;99.90;;;;;;4958101;29;20054;-72
2023/10/29 03:18:31;;;;;;;1.10;0.30;;;17.00;99.90;;;;;;4958147;29;20023;-73
2023/10/29 03:20:57;;;;;;;3.60;0.45;;;17.00;99.90;;;;;;4958223;29;20035;-72
2023/10/29 03:23:24;;;;;;;1.05;0.22;;;17.00;99.90;;;;;;4957732;28;20030;-73
2023/10/29 03:25:49;;;;;;;2.47;0.20;;;17.00;99.90;;;;;;4958040;28;20028;-73
2023/10/29 03:28:15;;;;;;;0.88;0.20;;;17.00;99.90;;;;;;4956421;28;20469;-71
2023/10/29 03:30:40;;;;;;;3.10;0.30;;;17.00;99.90;;;;;;4957113;28;20038;-73
2023/10/29 03:33:06;;;;;;;4.32;0.20;;;17.00;99.90;;;;;;4957779;28;20047;-74
2023/10/29 03:35:32;;;;;;;4.40;0.35;;;17.00;99.90;;;;;;4957787;28;20032;-73
2023/10/29 03:37:57;;;;;;;0.93;0.25;;;16.90;99.90;;;;;;4957734;28;20028;-74
2023/10/29 03:40:23;;;;;;;2.03;0.28;;;16.90;99.90;;;;;;4957811;28;20047;-73
2023/10/29 03:42:48;;;;;;;3.13;0.20;;;16.80;99.90;;;;;;4958103;28;20460;-73
2023/10/29 03:45:14;;;;;;;2.90;0.15;;;16.80;99.90;;;;;;4957586;28;20469;-73
2023/10/29 03:47:42;;;;;;;1.00;0.32;;;16.70;99.90;;;;;;4957583;29;20472;-73
2023/10/29 03:50:08;;;;;;;1.73;0.10;;;16.70;99.90;;;;;;4957761;28;20392;-73
2023/10/29 03:52:34;;;;;;;2.78;0.25;;;16.70;99.90;;;;;;4957486;28;20580;-70
2023/10/29 03:54:59;;;;;;;1.33;0.10;;;16.70;99.90;;;;;;4957732;28;20023;-69
2023/10/29 03:57:25;;;;;;;1.38;0.40;;;16.70;99.90;;;;;;4957492;28;20481;-72
2023/10/29 03:59:50;;;;;;;2.45;0.22;;;16.70;99.90;;;;;;4957139;28;20067;-73
2023/10/29 04:02:16;;;;;;;2.65;0.50;;;16.70;99.90;;;;;;4957665;28;20058;-74
2023/10/29 04:04:42;;;;;;;2.25;0.65;;;16.60;99.90;;;;;;4957215;28;20035;-73
2023/10/29 04:07:07;;;;;;;3.55;0.70;;;16.60;99.90;;;;;;4957376;28;20027;-74
2023/10/29 04:09:33;;;;;;;3.13;0.45;;;16.60;99.90;;;;;;4957483;28;20074;-73
2023/10/29 04:12:00;;;;;;;3.33;0.60;;;16.60;99.90;;;;;;4957338;28;20082;-73
2023/10/29 04:14:25;;;;;;;3.15;0.30;;;16.60;99.90;;;;;;4956936;28;20038;-74
2023/10/29 04:16:51;;;;;;;2.72;0.35;;;16.60;99.90;;;;;;4957057;28;20051;-69
2023/10/29 04:19:16;;;;;;;3.45;0.70;;;16.60;99.90;;;;;;4957313;28;20027;-70
2023/10/29 04:21:42;;;;;;;4.07;0.68;;;16.60;99.90;;;;;;4956453;28;20031;-73
2023/10/29 04:24:08;;;;;;;3.47;0.32;;;16.60;99.90;;;;;;4957095;28;20055;-73
2023/10/29 04:26:33;;;;;;;4.97;0.75;;;16.60;99.90;;;;;;4956982;28;20026;-74
2023/10/29 04:28:59;;;;;;;2.10;0.30;;;16.60;99.90;;;;;;4956641;28;20102;-71
2023/10/29 04:31:24;;;;;;;1.75;0.45;;;16.60;99.90;;;;;;4956740;28;20099;-73
2023/10/29 04:33:51;;;;;;;2.58;0.30;;;16.70;99.90;;;;;;4956700;28;20405;-73
2023/10/29 04:36:23;;;;;;;2.90;0.47;;;16.60;99.90;;;;;;4956806;28;20023;-73
2023/10/29 04:38:49;;;;;;;;;;;16.60;99.90;;;;;;4955888;28;20024;-71
2023/10/29 04:41:15;;;;;;;4.65;0.55;;;16.60;99.90;;;;;;4956564;28;20386;-72
2023/10/29 04:43:43;;;;;;;2.70;0.40;;;16.60;99.90;;;;;;4956332;28;20027;-73
2023/10/29 04:46:10;;;;;;;5.15;0.70;;;16.60;99.90;;;;;;4956667;28;20039;-70
2023/10/29 04:48:37;;;;;;;3.38;0.60;;;16.60;99.90;;;;;;4956636;28;20477;-69
2023/10/29 04:51:02;;;;;;;3.42;0.38;;;16.50;99.90;;;;;;4956497;28;20062;-72
2023/10/29 04:53:28;;;;;;;2.50;0.30;;;16.60;99.90;;;;;;4956761;28;20032;-72
2023/10/29 04:55:53;;;;;;;2.80;0.55;;;16.50;99.90;;;;;;4956325;28;20023;-73
2023/10/29 04:58:19;;;;;;;4.18;0.30;;;16.60;99.90;;;;;;4956263;28;20539;-74
2023/10/29 05:00:45;;;;;;;2.05;0.30;;;16.60;99.90;;;;;;4956202;28;20046;-73
2023/10/29 05:03:10;;;;;;;4.10;0.70;;;16.60;99.90;;;;;;4956764;28;20031;-72
2023/10/29 05:05:36;;;;;;;2.20;0.47;;;16.60;99.90;;;;;;4955993;28;20031;-73
2023/10/29 05:08:01;;;;;;;4.10;0.57;;;16.60;99.90;;;;;;4956346;28;20026;-73
2023/10/29 05:10:28;;;;;;;1.58;0.50;;;16.60;99.90;;;;;;4956191;28;20106;-73
2023/10/29 05:12:54;;;;;;;3.08;0.40;;;16.60;99.90;;;;;;4955846;28;20027;-73
2023/10/29 05:15:19;;;;;;;4.65;0.60;;;16.60;99.90;;;;;;4956176;28;20031;-73
2023/10/29 05:17:45;;;;;;;1.98;0.50;;;16.50;99.90;;;;;;4956187;28;20477;-73
2023/10/29 05:20:11;;;;;;;3.75;0.45;;;16.50;99.90;;;;;;4955752;28;20046;-73
2023/10/29 05:22:37;;;;;;;2.40;0.45;;;16.50;99.90;;;;;;4956125;28;20020;-70
2023/10/29 05:25:03;;;;;;;1.38;0.40;;;16.50;99.90;;;;;;4955782;28;20019;-73
2023/10/29 05:27:28;;;;;;;4.35;0.40;;;16.40;99.90;;;;;;4955791;28;20012;-72
2023/10/29 05:29:54;;;;;;;3.67;0.60;;;16.50;99.90;;;;;;4955639;28;20023;-73
2023/10/29 05:32:19;;;;;;;2.92;0.52;;;16.40;99.90;;;;;;4955799;28;20043;-72
2023/10/29 05:34:45;;;;;;;3.83;0.40;;;16.40;99.90;;;;;;4954831;28;20115;-73
2023/10/29 05:37:11;;;;;;;2.90;0.70;;;16.40;99.90;;;;;;4955737;28;20063;-73
2023/10/29 05:39:36;;;;;;;2.75;0.70;;;16.40;99.90;;;;;;4955617;28;20019;-73
2023/10/29 05:42:02;;;;;;;4.53;0.65;;;16.40;99.90;;;;;;4955553;28;20059;-70
2023/10/29 05:44:28;;;;;;;4.65;0.98;;;16.40;99.90;;;;;;4955727;28;20035;-74
2023/10/29 05:46:53;;;;;;;9.57;0.80;;;16.40;99.90;;;;;;4955566;28;20027;-73
2023/10/29 05:49:19;;;;;;;3.72;0.63;;;16.40;99.90;;;;;;4955581;28;20143;-73
2023/10/29 05:51:45;;;;;;;3.65;0.50;;;16.40;99.90;;;;;;4955357;28;20055;-72
2023/10/29 05:54:13;;;;;;;4.63;0.85;;;16.40;99.90;;;;;;4954463;28;20031;-74
2023/10/29 05:56:39;;;;;;;6.03;1.00;;;16.30;99.90;;;;;;4955143;28;20153;-73
2023/10/29 05:59:04;;;;;;;5.68;0.90;;;16.30;99.90;;;;;;4955467;28;20380;-74
2023/10/29 06:01:30;;;;;;;4.57;1.20;;;16.30;99.90;;;;;;4953486;28;20489;-72
2023/10/29 06:03:56;;;;;;;7.55;0.90;;;16.40;99.90;;;;;;4955319;28;20497;-70
2023/10/29 06:06:21;;;;;;;6.60;0.70;;;16.40;99.90;;;;;;4958119;28;20444;-71
2023/10/29 06:08:47;;;;;;;8.15;0.98;;;16.40;99.90;;;;;;4960809;28;20469;-68
2023/10/29 06:11:13;;;;;;;4.43;0.60;;;16.30;99.90;;;;;;4954973;28;20031;-71
2023/10/29 06:13:38;;;;;;;8.10;1.20;;;16.30;99.90;;;;;;4955161;28;20074;-73
2023/10/29 06:16:10;;;;;;;5.25;1.10;;;16.30;99.90;;;;;;4954343;28;20090;-73
2023/10/29 06:18:35;;;;;;;6.18;1.17;;;16.30;99.90;;;;;;4955062;28;20031;-72
2023/10/29 06:21:02;;;;;;;5.22;1.33;;;16.30;99.90;;;;;;4946380;28;20046;-73
2023/10/29 06:23:28;;;;;;;6.68;1.13;;;16.30;99.90;;;;;;4962178;28;20019;-73
2023/10/29 06:25:53;;;;;;;6.97;0.95;;;16.20;99.90;;;;;;4954768;28;20040;-72
2023/10/29 06:28:19;;;;;;;5.72;1.00;;;16.20;99.90;;;;;;4955101;29;20024;-73
2023/10/29 06:30:46;;;;;;;6.55;1.25;;;16.20;99.90;;;;;;4960787;28;20074;-69
2023/10/29 06:33:11;;;;;;;7.30;1.60;;;16.20;99.90;;;;;;4951516;28;20130;-73
2023/10/29 06:35:38;;;;;;;7.40;2.13;;;16.20;99.90;;;;;;4954867;29;20487;-73
2023/10/29 06:38:03;;;;;;;7.60;1.95;;;16.20;99.90;;;;;;4954860;28;20012;-73
2023/10/29 06:40:29;;;;;;;7.13;1.40;;;16.20;99.90;;;;;;4951793;28;20110;-73
2023/10/29 06:42:55;;;;;;;7.47;1.33;;;16.20;99.90;;;;;;4955021;28;20058;-73
2023/10/29 06:45:21;;;;;;;9.38;1.55;;;16.20;99.90;;;;;;4955097;28;20032;-72
2023/10/29 06:47:47;;;;;;;8.77;1.20;;;16.10;99.90;;;;;;4956727;28;20030;-73
2023/10/29 06:50:12;;;;;;;6.95;1.33;;;16.10;99.90;;;;;;4955413;28;20035;-73
2023/10/29 06:52:38;;;;;;;5.63;1.30;;;16.20;99.90;;;;;;4956412;28;20024;-73
2023/10/29 06:55:04;;;;;;;5.20;1.13;;;16.30;99.90;;;;;;4949002;28;20036;-73
2023/10/29 06:57:29;;;;;;;8.30;1.20;;;16.30;99.90;;;;;;4954423;28;20039;-73
2023/10/29 06:59:56;;;;;;;7.13;1.10;;;16.40;99.90;;;;;;4947980;28;20024;-75
2023/10/29 07:02:21;;;;;;;7.68;1.13;;;16.40;99.90;;;;;;4948157;28;20030;-73
2023/10/29 07:04:47;;;;;;;6.00;1.50;;;16.40;99.90;;;;;;4959175;28;20041;-74
2023/10/29 07:07:13;;;;;;;4.93;1.45;;;16.50;99.90;;;;;;4954799;28;20440;-72
2023/10/29 07:09:38;;;;;;;7.25;1.38;;;16.50;99.90;;;;;;4941618;28;20114;-73
2023/10/29 07:12:04;;;;;;;5.93;1.33;;;16.50;99.90;;;;;;4938400;28;20050;-73
2023/10/29 07:14:29;;;;;;;8.25;1.52;;;16.50;99.90;;;;;;4950598;28;20031;-72
2023/10/29 07:16:55;;;;;;;8.07;1.02;;;16.50;99.90;;;;;;4950351;28;20031;-73
2023/10/29 07:19:23;;;;;;;10.40;1.67;;;16.60;99.90;;;;;;4940117;28;20027;-72
2023/10/29 07:21:49;;;;;;;6.18;1.38;;;16.60;99.90;;;;;;4957784;28;20493;-70
2023/10/29 07:24:14;;;;;;;7.90;1.48;;;16.60;99.90;;;;;;4946470;28;20031;-72
2023/10/29 07:26:41;;;;;;;7.70;1.20;;;16.60;99.90;;;;;;4944039;28;20040;-72
2023/10/29 07:29:07;;;;;;;7.22;1.35;;;16.60;99.90;;;;;;4938235;29;20023;-70
2023/10/29 07:31:33;;;;;;;9.82;1.50;;;16.60;99.90;;;;;;4940181;28;20355;-73
2023/10/29 07:33:59;;;;;;;6.22;1.05;;;16.60;99.90;;;;;;4944499;28;20103;-73
2023/10/29 07:36:24;;;;;;;8.43;1.40;;;16.60;99.90;;;;;;4950822;28;20031;-72
2023/10/29 07:38:50;;;;;;;8.35;1.30;;;16.60;99.90;;;;;;4951360;29;20523;-73
2023/10/29 07:41:19;;;;;;;8.70;1.75;;;16.60;99.90;;;;;;4959502;28;20031;-73
2023/10/29 07:43:45;;;;;;;10.30;1.58;;;16.50;99.90;;;;;;4946749;28;20086;-72
2023/10/29 07:46:11;;;;;;;8.43;1.52;;;16.60;99.90;;;;;;4950913;28;20062;-74
2023/10/29 07:48:36;;;;;;;10.00;1.95;;;16.60;99.90;;;;;;4947766;28;20035;-73
2023/10/29 07:51:02;;;;;;;9.18;1.40;;;16.50;99.90;;;;;;4952429;28;20024;-73
2023/10/29 07:53:30;;;;;;;6.97;1.42;;;16.50;99.90;;;;;;4951534;28;20469;-71
2023/10/29 07:56:06;;;;;;;7.57;1.50;;;16.60;99.90;;;;;;4953624;28;20030;-71
2023/10/29 07:58:31;;;;;;;13.48;2.13;;;16.60;99.90;;;;;;4954795;28;20492;-72
2023/10/29 08:00:57;;;;;;;8.55;1.85;;;16.60;99.90;;;;;;4967578;28;20098;-70
2023/10/29 08:03:22;;;;;;;8.13;1.75;;;16.60;99.90;;;;;;4956331;28;20055;-73
2023/10/29 08:05:52;;;;;;;8.93;1.88;;;16.70;99.90;;;;;;4955834;28;20055;-71
2023/10/29 08:08:18;;;;;;;10.32;1.90;;;16.70;99.90;;;;;;4955559;28;20031;-72
2023/10/29 08:10:44;;;;;;;12.63;2.30;;;16.70;99.90;;;;;;4953314;28;20042;-71
2023/10/29 08:13:10;;;;;;;12.57;1.52;;;16.70;99.90;;;;;;4943545;28;20024;-69
2023/10/29 08:15:39;;;;;;;6.85;1.58;;;16.60;99.90;;;;;;4939935;28;20027;-71
2023/10/29 08:18:05;;;;;;;7.70;1.50;;;16.60;99.90;;;;;;4941079;28;20031;-72
2023/10/29 08:20:31;;;;;;;9.73;1.92;;;16.50;99.90;;;;;;4953933;28;20039;-70
2023/10/29 08:22:57;;;;;;;8.48;1.85;;;16.50;99.90;;;;;;4953767;29;20500;-73
2023/10/29 08:25:22;;;;;;;6.70;1.67;;;16.50;99.90;;;;;;4968557;28;20031;-72
2023/10/29 08:27:48;;;;;;;9.77;2.17;;;16.50;99.90;;;;;;4953945;28;20031;-72
2023/10/29 08:30:13;;;;;;;12.02;1.92;;;16.50;99.90;;;;;;4955648;28;20035;-73
2023/10/29 08:32:39;;;;;;;9.75;2.05;;;16.40;99.90;;;;;;4953668;28;20038;-71
2023/10/29 08:35:08;;;;;;;11.88;1.98;;;16.40;99.90;;;;;;4953135;28;20102;-70
2023/10/29 08:37:37;;;;;;;9.98;1.42;;;16.40;99.90;;;;;;4953388;28;20400;-71
2023/10/29 08:40:04;;;;;;;9.65;2.05;;;16.40;99.90;;;;;;4953871;28;20046;-72
2023/10/29 08:42:30;;;;;;;10.07;2.47;;;16.40;99.90;;;;;;4954420;28;20556;-71
2023/10/29 08:44:56;;;;;;;12.93;2.22;;;16.40;99.90;;;;;;4954296;28;20023;-72
2023/10/29 08:47:26;;;;;;;10.10;2.10;;;16.40;99.90;;;;;;4953762;28;20031;-73
2023/10/29 08:49:51;;;;;;;11.05;2.20;;;16.40;99.90;;;;;;4952600;28;20523;-73
2023/10/29 08:52:17;;;;;;;11.13;2.55;;;16.40;99.90;;;;;;4954869;28;20063;-74
2023/10/29 08:54:47;;;;;;;8.25;1.83;;;16.40;99.90;;;;;;4955566;29;20061;-74
2023/10/29 08:57:13;;;;;;;12.77;1.95;;;16.40;99.90;;;;;;4954449;28;20043;-72
2023/10/29 08:59:39;;;;;;;10.98;2.20;;;16.40;99.90;;;;;;4955538;28;20119;-72
2023/10/29 09:02:06;;;;;;;7.25;1.73;;;16.40;99.90;;;;;;4954722;28;20114;-74
2023/10/29 09:04:36;;;;;;;11.25;2.35;;;16.40;99.90;;;;;;4969809;28;20027;-75
2023/10/29 09:07:02;;;;;;;11.32;2.63;;;16.40;99.90;;;;;;4964122;28;20035;-75
2023/10/29 09:09:28;;;;;;;5.60;1.70;;;16.40;99.90;;;;;;4955104;28;20038;-73
2023/10/29 09:11:54;;;;;;;8.30;2.13;;;16.50;99.90;;;;;;4954832;28;20024;-73
2023/10/29 09:14:19;;;;;;;10.07;2.58;;;16.50;99.90;;;;;;4955436;28;20035;-77
2023/10/29 09:16:47;;;;;;;9.43;1.63;;;16.50;99.90;;;;;;4955275;29;20146;-74
2023/10/29 09:19:14;;;;;;;8.52;1.77;;;16.50;99.90;;;;;;4954509;28;20042;-73
2023/10/29 09:21:39;;;;;;;11.02;2.03;;;16.60;99.90;;;;;;4955899;28;20090;-73
2023/10/29 09:24:06;;;;;;;10.15;2.10;;;16.50;99.90;;;;;;4955670;29;20036;-74
2023/10/29 09:26:32;;;;;;;13.35;2.55;;;16.60;99.90;;;;;;4954355;28;20031;-73
2023/10/29 09:29:00;;;;;;;8.45;1.85;;;16.50;99.90;;;;;;4955571;29;20392;-73
2023/10/29 09:31:25;;;;;;;11.52;2.35;;;16.50;99.90;;;;;;4954668;28;20020;-73
2023/10/29 09:33:51;;;;;;;11.50;2.15;;;16.50;99.90;;;;;;4970186;28;20050;-74
2023/10/29 09:36:18;;;;;;;10.32;2.83;;;16.50;99.90;;;;;;4954877;28;20035;-73
2023/10/29 09:38:43;;;;;;;8.98;2.53;;;16.60;99.90;;;;;;4955764;28;20058;-73
2023/10/29 09:41:09;;;;;;;10.38;1.88;;;16.50;99.90;;;;;;4954627;28;20034;-74
2023/10/29 09:43:42;;;;;;;10.52;1.90;;;16.60;99.90;;;;;;4954237;28;20019;-72
2023/10/29 09:46:10;;;;;;;12.30;3.40;;;16.60;99.90;;;;;;4954626;28;20492;-72
2023/10/29 09:48:42;;;;;;;9.35;2.58;;;16.60;99.90;;;;;;4951869;29;20050;-74
2023/10/29 09:51:08;;;;;;;15.77;2.58;;;16.70;99.90;;;;;;4942650;29;20031;-75
2023/10/29 09:53:36;;;;;;;11.88;2.58;;;16.70;99.90;;;;;;4951322;28;20027;-73
2023/10/29 09:56:02;;;;;;;8.48;2.85;;;16.70;99.90;;;;;;4948115;28;20032;-73
2023/10/29 09:58:28;;;;;;;8.48;2.22;;;16.80;99.90;;;;;;4950927;28;20046;-71
2023/10/29 10:00:54;;;;;;;10.98;2.20;;;16.80;99.90;;;;;;4948182;28;20085;-73
2023/10/29 10:03:20;;;;;;;8.35;1.70;;;16.90;99.90;;;;;;4946345;28;20173;-74
2023/10/29 10:05:47;;;;;;;11.40;2.33;;;16.90;99.90;;;;;;4950990;28;20081;-73
2023/10/29 10:08:12;;;;;;;14.43;2.30;;;16.90;99.90;;;;;;4950178;28;20497;-70
2023/10/29 10:10:43;;;;;;;10.45;2.28;;;16.90;99.90;;;;;;4953166;28;20035;-69
2023/10/29 10:13:10;;;;;;;12.90;2.53;;;17.00;99.90;;;;;;4952390;28;20027;-69
2023/10/29 10:15:37;;;;;;;10.77;2.05;;;17.00;99.90;;;;;;4950451;28;20028;-69
2023/10/29 10:18:04;;;;;;;15.27;1.95;;;17.00;99.90;;;;;;4966917;28;20482;-73
2023/10/29 10:20:31;;;;;;;11.23;2.17;;;17.00;99.90;;;;;;4947213;28;20124;-70
2023/10/29 10:23:01;;;;;;;14.07;1.80;;;17.10;99.90;;;;;;4946918;29;20486;-70
2023/10/29 10:25:28;;;;;;;6.53;1.92;;;17.20;99.90;;;;;;4945086;28;20039;-70
2023/10/29 10:27:56;;;;;;;8.55;1.80;;;17.20;99.90;;;;;;4947790;28;20036;-71
2023/10/29 10:30:31;;;;;;;15.13;2.08;;;17.20;99.90;;;;;;4940182;28;20023;-74
2023/10/29 10:33:13;;;;;;;8.90;2.17;;;17.30;99.90;;;;;;4947554;28;20042;-73
2023/10/29 10:35:54;;;;;;;14.30;2.22;;;17.30;99.90;;;;;;4959223;28;20035;-74
2023/10/29 10:38:20;;;;;;;14.82;2.13;;;17.30;99.90;;;;;;4943536;28;20477;-72
2023/10/29 10:40:47;;;;;;;11.10;1.65;;;17.30;99.90;;;;;;4936633;28;20043;-74
2023/10/29 10:43:18;;;;;;;9.05;1.92;;;17.30;99.90;;;;;;4939205;28;20039;-75
2023/10/29 10:45:50;;;;;;;11.87;1.70;;;17.30;99.90;;;;;;4946164;28;20427;-74
2023/10/29 10:48:17;;;;;;;12.98;1.90;;;17.30;99.90;;;;;;4940336;29;20628;-74
2023/10/29 10:50:45;;;;;;;7.93;1.52;;;17.30;99.90;;;;;;4940938;29;20027;-74
2023/10/29 10:53:12;;;;;;;13.13;2.38;;;17.40;99.90;;;;;;4935155;28;20070;-73
2023/10/29 10:55:39;;;;;;;14.32;3.17;;;17.30;99.90;;;;;;4938515;29;20449;-73
2023/10/29 10:58:06;;;;;;;8.75;2.45;;;17.30;99.90;;;;;;4936525;29;20614;-73
2023/10/29 11:00:33;;;;;;;10.88;2.47;;;17.30;99.90;;;;;;4948372;28;20071;-74
2023/10/29 11:02:59;;;;;;;15.73;2.63;;;17.20;99.90;;;;;;4951652;28;20563;-73
2023/10/29 11:05:30;;;;;;;13.23;2.65;;;17.20;99.90;;;;;;4947771;28;20032;-70
2023/10/29 11:07:58;;;;;;;12.43;2.38;;;17.20;99.90;;;;;;4946132;28;20164;-75
2023/10/29 11:10:25;;;;;;;11.13;2.05;;;17.10;99.90;;;;;;4947190;28;20468;-76
2023/10/29 11:12:51;;;;;;;12.70;2.60;;;17.20;99.90;;;;;;4942041;28;20039;-75
2023/10/29 11:15:21;;;;;;;10.70;2.63;;;17.30;99.90;;;;;;4947559;28;20624;-73
2023/10/29 11:18:01;;;;;;;9.40;2.30;;;17.40;99.90;;;;;;4951369;29;20089;-73
2023/10/29 11:20:41;;;;;;;11.23;2.20;;;17.30;99.90;;;;;;4946813;28;20105;-76
2023/10/29 11:23:13;;;;;;;13.05;2.85;;;17.30;99.90;;;;;;4954199;28;20038;-72
2023/10/29 11:25:39;;;;;;;12.32;2.22;;;17.40;99.90;;;;;;4950853;28;20043;-74
2023/10/29 11:28:06;;;;;;;6.38;1.88;;;17.40;99.90;;;;;;4951803;28;20035;-72
2023/10/29 11:30:32;;;;;;;9.82;2.20;;;17.40;99.90;;;;;;4949847;28;20050;-76
2023/10/29 11:33:12;;;;;;;10.52;1.73;;;17.40;99.90;;;;;;4952652;28;20500;-76
2023/10/29 11:35:39;;;;;;;9.07;2.60;;;17.40;99.90;;;;;;4955957;28;20024;-75
2023/10/29 11:38:27;;;;;;;11.25;2.33;;;17.40;99.90;;;;;;4951261;28;20027;-70
2023/10/29 11:40:53;;;;;;;9.52;2.35;;;17.40;99.90;;;;;;4952916;28;20046;-74
2023/10/29 11:43:22;;;;;;;13.27;6.65;;;17.40;99.90;;;;;;4953055;28;20417;-74
2023/10/29 11:45:53;;;;;;;15.60;7.78;;;17.40;99.90;;;;;;4952592;28;20031;-75
2023/10/29 11:48:19;;;;;;;13.40;7.80;;;17.50;99.90;;;;;;4951718;28;20053;-75
2023/10/29 11:51:03;;;;;;;17.65;8.88;;;17.50;99.90;;;;;;4952559;28;20456;-76
2023/10/29 11:53:29;;;;;;;14.68;8.15;;;17.50;99.90;;;;;;4953852;28;20031;-76
2023/10/29 11:55:57;;;;;;;11.77;7.32;;;17.60;99.90;;;;;;4951056;28;20619;-77
2023/10/29 11:58:24;;;;;;;18.48;7.80;;;17.60;99.90;;;;;;4948387;28;20103;-75
2023/10/29 12:00:50;;;;;;;13.65;5.65;;;17.70;99.90;;;;;;4950090;28;20552;-73
2023/10/29 12:03:20;;;;;;;13.23;4.97;;;17.60;99.90;;;;;;4951921;28;20046;-72
2023/10/29 12:05:50;;;;;;;13.88;3.45;;;17.60;99.90;;;;;;4952080;29;20050;-72
2023/10/29 12:08:16;;;;;;;10.88;3.25;;;17.60;99.90;;;;;;4954059;28;20690;-72
2023/10/29 12:10:49;;;;;;;11.38;3.13;;;17.50;99.90;;;;;;4950236;28;20553;-74
2023/10/29 12:13:18;;;;;;;11.98;3.47;;;17.50;99.90;;;;;;4950947;28;20083;-76
2023/10/29 12:16:00;;;;;;;9.18;2.53;;;17.50;99.90;;;;;;4955081;28;20041;-74
2023/10/29 12:18:26;;;;;;;12.80;3.05;;;17.50;99.90;;;;;;4953801;28;20078;-70
2023/10/29 12:21:09;;;;;;;10.57;2.97;;;17.50;99.90;;;;;;4956325;28;20050;-71
2023/10/29 12:23:36;;;;;;;10.57;1.88;;;17.50;99.90;;;;;;4947040;28;20503;-73
2023/10/29 12:26:06;;;;;;;9.32;2.22;;;17.50;99.90;;;;;;4948856;28;20098;-71
2023/10/29 12:28:34;;;;;;;9.07;1.52;;;17.50;99.90;;;;;;4967027;28;20038;-73
2023/10/29 12:31:00;;;;;;;8.25;1.98;;;17.50;99.90;;;;;;4952184;28;20039;-70
2023/10/29 12:33:29;;;;;;;5.82;1.60;;;17.50;99.90;;;;;;4947866;28;20060;-69
2023/10/29 12:35:57;;;;;;;15.98;3.15;;;17.50;99.90;;;;;;4949760;28;20066;-72
2023/10/29 12:38:24;;;;;;;10.27;2.30;;;17.50;99.90;;;;;;4954221;28;20030;-71
2023/10/29 12:41:06;;;;;;;9.30;1.90;;;17.40;99.90;;;;;;4951576;28;20031;-68
2023/10/29 12:43:39;;;;;;;9.02;1.85;;;17.50;99.90;;;;;;4951580;28;20114;-69